Weather - Helsinki Query any day in the database

Current weather  

Weather data for a selected day (2006-01-01 -2020-10-31)
Enter date:     <-     scroll days         ->
day curves
Low temperature°C -28.022:50
High temperature°C -23.016:20
Low wind chill°C -34.907:50
Average temperature°C -25.0 
High wind speed (10 min) m/s 3.112:50
Low pressurehPa 1014.023:20
High pressurehPa 1015.023:50
Low R.H% 7519:50
High R.H% 8323:50
Day weather data as a table
Date Time Temp
°C
Chill
°C
Pressure
hPA
Wind
m/s
Hum
%
Precip
mm
2016-01-07 23:50:00 -27.0  -31.9  1015.0 1.3 83 -
2016-01-07 23:20:00 -27.0  -30.3  1014.0 0.9 83 -
2016-01-07 22:50:00 -28.0  -31.4  1015.0 0.9 82 -
2016-01-07 22:20:00 -27.0  -31.9  1015.0 1.3 75 -
2016-01-07 21:50:00 -27.0  -30.3  1015.0 0.9 83 -
2016-01-07 21:20:00 -26.0  -26.0  1015.0 0.4 75 -
2016-01-07 20:50:00 -26.0  -29.2  1015.0 0.9 83 -
2016-01-07 20:20:00 -26.0  -29.2  1014.0 0.9 83 -
2016-01-07 19:50:00 -26.0  -30.8  1014.0 1.3 75 -
2016-01-07 19:20:00 -25.0  -29.7  1014.0 1.3 83 -
2016-01-07 18:50:00 -26.0  -30.8  1014.0 1.3 83 -
2016-01-07 18:20:00 -25.0  -28.1  1014.0 0.9 83 -
2016-01-07 17:50:00 -24.0  -27.0  1015.0 0.9 83 -
2016-01-07 17:20:00 -24.0  -28.5  1014.0 1.3 83 -
2016-01-07 16:50:00 -24.0  -30.9  1014.0 2.2 83 -
2016-01-07 16:20:00 -23.0  -23.0  1014.0 0.4 76 -
2016-01-07 15:50:00 -23.0  -29.7  1014.0 2.2 76 -
2016-01-07 15:20:00 -23.0  -29.7  1014.0 2.2 76 -
2016-01-07 14:50:00 -23.0  -29.7  1015.0 2.2 83 -
2016-01-07 14:20:00 -23.0  -29.7  1015.0 2.2 83 -
2016-01-07 13:50:00 -23.0  -27.4  1015.0 1.3 83 -
2016-01-07 13:20:00 -23.0  -29.7  1015.0 2.2 76 -
2016-01-07 12:50:00 -23.0  -31.3  1015.0 3.1 76 -
2016-01-07 12:20:00 -24.0  -31.8  1014.0 2.7 83 -
2016-01-07 11:50:00 -24.0  -32.5  1015.0 3.1 76 -
2016-01-07 11:20:00 -25.0  -33.0  1015.0 2.7 83 -
2016-01-07 10:50:00 -25.0  -32.1  1015.0 2.2 76 -
2016-01-07 10:20:00 -26.0  -30.8  1015.0 1.3 83 -
2016-01-07 09:50:00 -26.0  -33.2  1015.0 2.2 83 -
2016-01-07 09:20:00 -26.0  -34.2  1015.0 2.7 83 -
2016-01-07 08:50:00 -26.0  -33.2  1015.0 2.2 83 -
2016-01-07 08:20:00 -26.0  -33.2  1015.0 2.2 83 -
2016-01-07 07:50:00 -26.0  -34.9  1015.0 3.1 83 -
2016-01-07 07:20:00 -25.0  -32.1  1014.0 2.2 76 -
2016-01-07 06:50:00 -25.0  -33.0  1014.0 2.7 76 -
2016-01-07 06:20:00 -25.0  -32.1  1014.0 2.2 76 -
2016-01-07 05:50:00 -25.0  -33.0  1014.0 2.7 76 -
2016-01-07 05:20:00 -25.0  -33.0  1014.0 2.7 83 -
2016-01-07 04:50:00 -25.0  -33.7  1014.0 3.1 76 -
2016-01-07 04:20:00 -25.0  -33.7  1014.0 3.1 76 -
2016-01-07 03:50:00 -25.0  -32.1  1014.0 2.2 76 -
2016-01-07 03:20:00 -25.0  -29.7  1014.0 1.3 83 -
2016-01-07 02:50:00 -25.0  -28.1  1014.0 0.9 76 -
2016-01-07 02:20:00 -25.0  -32.1  1014.0 2.2 76 -
2016-01-07 01:50:00 -25.0  -33.0  1014.0 2.7 83 -
2016-01-07 01:20:00 -25.0  -33.7  1014.0 3.1 83 -
2016-01-07 00:50:00 -25.0  -33.7  1014.0 3.1 83 -
2016-01-07 00:20:00 -25.0  -33.0  1014.0 2.7 83 -
Unit conversions: